sensor_id;sensor_type;location;lat;lon;timestamp;P1;durP1;ratioP1;P2;durP2;ratioP2
21543;SDS011;10933;50.754;11.508;2022-08-21T00:02:20;20.10;;;18.25;;
21543;SDS011;10933;50.754;11.508;2022-08-21T00:04:49;21.52;;;19.00;;
21543;SDS011;10933;50.754;11.508;2022-08-21T00:07:16;19.52;;;17.98;;
21543;SDS011;10933;50.754;11.508;2022-08-21T00:09:43;19.20;;;17.80;;
21543;SDS011;10933;50.754;11.508;2022-08-21T00:12:09;19.63;;;17.75;;
21543;SDS011;10933;50.754;11.508;2022-08-21T00:14:36;19.98;;;18.30;;
21543;SDS011;10933;50.754;11.508;2022-08-21T00:17:03;20.15;;;18.13;;
21543;SDS011;10933;50.754;11.508;2022-08-21T00:19:30;19.15;;;17.77;;
21543;SDS011;10933;50.754;11.508;2022-08-21T00:21:56;20.88;;;18.77;;
21543;SDS011;10933;50.754;11.508;2022-08-21T00:24:23;19.42;;;16.83;;
21543;SDS011;10933;50.754;11.508;2022-08-21T00:26:49;18.83;;;17.27;;
21543;SDS011;10933;50.754;11.508;2022-08-21T00:29:16;19.05;;;16.98;;
21543;SDS011;10933;50.754;11.508;2022-08-21T00:31:42;17.88;;;16.70;;
21543;SDS011;10933;50.754;11.508;2022-08-21T00:34:09;18.80;;;17.10;;
21543;SDS011;10933;50.754;11.508;2022-08-21T00:36:36;15.80;;;15.00;;
21543;SDS011;10933;50.754;11.508;2022-08-21T00:39:04;17.67;;;16.55;;
21543;SDS011;10933;50.754;11.508;2022-08-21T00:41:31;16.92;;;15.60;;
21543;SDS011;10933;50.754;11.508;2022-08-21T00:43:58;17.52;;;16.23;;
21543;SDS011;10933;50.754;11.508;2022-08-21T00:46:24;17.60;;;16.50;;
21543;SDS011;10933;50.754;11.508;2022-08-21T00:48:50;17.55;;;16.25;;
21543;SDS011;10933;50.754;11.508;2022-08-21T00:51:19;19.23;;;17.63;;
21543;SDS011;10933;50.754;11.508;2022-08-21T00:53:53;18.67;;;16.95;;
21543;SDS011;10933;50.754;11.508;2022-08-21T00:56:22;18.40;;;17.20;;
21543;SDS011;10933;50.754;11.508;2022-08-21T00:58:49;19.85;;;17.85;;
21543;SDS011;10933;50.754;11.508;2022-08-21T01:01:17;19.23;;;17.88;;
21543;SDS011;10933;50.754;11.508;2022-08-21T01:03:44;19.00;;;17.35;;
21543;SDS011;10933;50.754;11.508;2022-08-21T01:06:11;19.33;;;17.77;;
21543;SDS011;10933;50.754;11.508;2022-08-21T01:08:38;17.65;;;16.45;;
21543;SDS011;10933;50.754;11.508;2022-08-21T01:11:04;17.60;;;15.68;;
21543;SDS011;10933;50.754;11.508;2022-08-21T01:13:32;16.83;;;15.50;;
21543;SDS011;10933;50.754;11.508;2022-08-21T01:16:02;15.60;;;14.70;;
21543;SDS011;10933;50.754;11.508;2022-08-21T01:18:33;16.63;;;15.32;;
21543;SDS011;10933;50.754;11.508;2022-08-21T01:21:17;15.57;;;14.68;;
21543;SDS011;10933;50.754;11.508;2022-08-21T01:23:49;15.55;;;14.30;;
21543;SDS011;10933;50.754;11.508;2022-08-21T01:26:18;16.48;;;15.48;;
21543;SDS011;10933;50.754;11.508;2022-08-21T01:28:54;16.88;;;14.93;;
21543;SDS011;10933;50.754;11.508;2022-08-21T01:31:28;15.18;;;14.13;;
21543;SDS011;10933;50.754;11.508;2022-08-21T01:33:56;15.15;;;14.10;;
21543;SDS011;10933;50.754;11.508;2022-08-21T01:36:23;14.75;;;13.65;;
21543;SDS011;10933;50.754;11.508;2022-08-21T01:38:50;15.02;;;13.82;;
21543;SDS011;10933;50.754;11.508;2022-08-21T01:41:16;15.00;;;13.93;;
21543;SDS011;10933;50.754;11.508;2022-08-21T01:43:43;15.48;;;14.55;;
21543;SDS011;10933;50.754;11.508;2022-08-21T01:46:10;16.52;;;14.90;;
21543;SDS011;10933;50.754;11.508;2022-08-21T01:48:37;16.08;;;15.18;;
21543;SDS011;10933;50.754;11.508;2022-08-21T01:51:05;16.75;;;15.70;;
21543;SDS011;10933;50.754;11.508;2022-08-21T01:53:32;15.95;;;14.95;;
21543;SDS011;10933;50.754;11.508;2022-08-21T01:56:00;16.48;;;15.38;;
21543;SDS011;10933;50.754;11.508;2022-08-21T01:58:28;17.17;;;15.90;;
21543;SDS011;10933;50.754;11.508;2022-08-21T02:00:55;17.15;;;15.68;;
21543;SDS011;10933;50.754;11.508;2022-08-21T02:03:21;16.48;;;15.18;;
21543;SDS011;10933;50.754;11.508;2022-08-21T02:05:47;16.45;;;15.18;;
21543;SDS011;10933;50.754;11.508;2022-08-21T02:08:13;14.70;;;13.82;;
21543;SDS011;10933;50.754;11.508;2022-08-21T02:10:39;15.70;;;14.70;;
21543;SDS011;10933;50.754;11.508;2022-08-21T02:13:06;16.70;;;15.70;;
21543;SDS011;10933;50.754;11.508;2022-08-21T02:15:32;15.88;;;14.80;;
21543;SDS011;10933;50.754;11.508;2022-08-21T02:17:59;16.75;;;15.45;;
21543;SDS011;10933;50.754;11.508;2022-08-21T02:20:32;16.08;;;14.85;;
21543;SDS011;10933;50.754;11.508;2022-08-21T02:23:01;15.70;;;14.80;;
21543;SDS011;10933;50.754;11.508;2022-08-21T02:25:29;16.45;;;14.90;;
21543;SDS011;10933;50.754;11.508;2022-08-21T02:27:56;15.93;;;14.90;;
21543;SDS011;10933;50.754;11.508;2022-08-21T02:30:24;22.33;;;14.80;;
21543;SDS011;10933;50.754;11.508;2022-08-21T02:32:53;16.27;;;15.23;;
21543;SDS011;10933;50.754;11.508;2022-08-21T02:35:19;15.75;;;14.63;;
21543;SDS011;10933;50.754;11.508;2022-08-21T02:37:57;17.33;;;15.68;;
21543;SDS011;10933;50.754;11.508;2022-08-21T02:40:27;15.10;;;14.18;;
21543;SDS011;10933;50.754;11.508;2022-08-21T02:42:56;15.10;;;14.20;;
21543;SDS011;10933;50.754;11.508;2022-08-21T02:45:22;15.43;;;13.85;;
21543;SDS011;10933;50.754;11.508;2022-08-21T02:47:49;15.65;;;14.45;;
21543;SDS011;10933;50.754;11.508;2022-08-21T02:50:40;15.43;;;14.07;;
21543;SDS011;10933;50.754;11.508;2022-08-21T02:53:11;17.17;;;15.57;;
21543;SDS011;10933;50.754;11.508;2022-08-21T02:55:41;16.25;;;15.15;;
21543;SDS011;10933;50.754;11.508;2022-08-21T02:58:12;14.88;;;13.88;;
21543;SDS011;10933;50.754;11.508;2022-08-21T03:00:41;14.23;;;13.52;;
21543;SDS011;10933;50.754;11.508;2022-08-21T03:03:08;18.88;;;15.50;;
21543;SDS011;10933;50.754;11.508;2022-08-21T03:05:35;17.65;;;16.38;;
21543;SDS011;10933;50.754;11.508;2022-08-21T03:08:03;17.58;;;15.95;;
21543;SDS011;10933;50.754;11.508;2022-08-21T03:10:34;16.92;;;15.60;;
21543;SDS011;10933;50.754;11.508;2022-08-21T03:13:02;17.42;;;15.63;;
21543;SDS011;10933;50.754;11.508;2022-08-21T03:15:28;17.42;;;15.43;;
21543;SDS011;10933;50.754;11.508;2022-08-21T03:17:55;16.35;;;14.70;;
21543;SDS011;10933;50.754;11.508;2022-08-21T03:20:22;37.92;;;15.95;;
21543;SDS011;10933;50.754;11.508;2022-08-21T03:22:50;25.70;;;15.98;;
21543;SDS011;10933;50.754;11.508;2022-08-21T03:25:18;36.85;;;16.63;;
21543;SDS011;10933;50.754;11.508;2022-08-21T03:27:46;26.55;;;16.10;;
21543;SDS011;10933;50.754;11.508;2022-08-21T03:30:16;16.55;;;15.07;;
21543;SDS011;10933;50.754;11.508;2022-08-21T03:32:44;17.38;;;15.68;;
21543;SDS011;10933;50.754;11.508;2022-08-21T03:35:12;20.92;;;15.57;;
21543;SDS011;10933;50.754;11.508;2022-08-21T03:37:39;20.05;;;14.90;;
21543;SDS011;10933;50.754;11.508;2022-08-21T03:40:06;32.03;;;14.75;;
21543;SDS011;10933;50.754;11.508;2022-08-21T03:42:34;46.80;;;13.88;;
21543;SDS011;10933;50.754;11.508;2022-08-21T03:45:00;108.28;;;16.10;;
21543;SDS011;10933;50.754;11.508;2022-08-21T03:47:27;17.50;;;14.70;;
21543;SDS011;10933;50.754;11.508;2022-08-21T03:49:54;25.65;;;13.70;;
21543;SDS011;10933;50.754;11.508;2022-08-21T03:52:20;14.35;;;13.05;;
21543;SDS011;10933;50.754;11.508;2022-08-21T03:54:46;14.65;;;13.48;;
21543;SDS011;10933;50.754;11.508;2022-08-21T03:57:13;14.77;;;13.55;;
21543;SDS011;10933;50.754;11.508;2022-08-21T03:59:39;30.10;;;15.02;;
21543;SDS011;10933;50.754;11.508;2022-08-21T04:02:06;35.08;;;15.02;;
21543;SDS011;10933;50.754;11.508;2022-08-21T04:04:33;81.63;;;14.50;;
21543;SDS011;10933;50.754;11.508;2022-08-21T04:06:59;164.75;;;16.88;;
21543;SDS011;10933;50.754;11.508;2022-08-21T04:09:26;107.30;;;14.95;;
21543;SDS011;10933;50.754;11.508;2022-08-21T04:11:53;62.75;;;15.73;;
21543;SDS011;10933;50.754;11.508;2022-08-21T04:14:19;36.67;;;14.70;;
21543;SDS011;10933;50.754;11.508;2022-08-21T04:16:46;71.85;;;15.35;;
21543;SDS011;10933;50.754;11.508;2022-08-21T04:19:12;18.70;;;14.90;;
21543;SDS011;10933;50.754;11.508;2022-08-21T04:21:39;31.92;;;14.18;;
21543;SDS011;10933;50.754;11.508;2022-08-21T04:24:05;23.38;;;14.52;;
21543;SDS011;10933;50.754;11.508;2022-08-21T04:26:35;17.02;;;14.48;;
21543;SDS011;10933;50.754;11.508;2022-08-21T04:29:03;21.83;;;16.98;;
21543;SDS011;10933;50.754;11.508;2022-08-21T04:31:31;55.60;;;14.38;;
21543;SDS011;10933;50.754;11.508;2022-08-21T04:33:59;67.90;;;15.15;;
21543;SDS011;10933;50.754;11.508;2022-08-21T04:36:25;201.57;;;15.70;;
21543;SDS011;10933;50.754;11.508;2022-08-21T04:38:51;74.78;;;15.00;;
21543;SDS011;10933;50.754;11.508;2022-08-21T04:41:17;30.65;;;17.58;;
21543;SDS011;10933;50.754;11.508;2022-08-21T04:43:44;116.82;;;19.55;;
21543;SDS011;10933;50.754;11.508;2022-08-21T04:46:10;35.88;;;19.77;;
21543;SDS011;10933;50.754;11.508;2022-08-21T04:48:36;97.55;;;19.38;;
21543;SDS011;10933;50.754;11.508;2022-08-21T04:51:05;20.80;;;14.73;;
21543;SDS011;10933;50.754;11.508;2022-08-21T04:54:00;17.02;;;13.80;;
21543;SDS011;10933;50.754;11.508;2022-08-21T04:56:39;18.40;;;16.33;;
21543;SDS011;10933;50.754;11.508;2022-08-21T05:02:06;21.88;;;19.67;;
21543;SDS011;10933;50.754;11.508;2022-08-21T05:04:34;19.55;;;17.58;;
21543;SDS011;10933;50.754;11.508;2022-08-21T05:07:05;26.58;;;23.10;;
21543;SDS011;10933;50.754;11.508;2022-08-21T05:09:35;41.40;;;37.20;;
21543;SDS011;10933;50.754;11.508;2022-08-21T05:12:03;27.20;;;24.45;;
21543;SDS011;10933;50.754;11.508;2022-08-21T05:14:30;42.08;;;37.15;;
21543;SDS011;10933;50.754;11.508;2022-08-21T05:16:57;20.95;;;18.83;;
21543;SDS011;10933;50.754;11.508;2022-08-21T05:19:23;14.57;;;13.38;;
21543;SDS011;10933;50.754;11.508;2022-08-21T05:21:51;13.35;;;12.55;;
21543;SDS011;10933;50.754;11.508;2022-08-21T05:24:17;15.35;;;14.55;;
21543;SDS011;10933;50.754;11.508;2022-08-21T05:26:43;14.88;;;13.88;;
21543;SDS011;10933;50.754;11.508;2022-08-21T05:29:10;28.33;;;26.27;;
21543;SDS011;10933;50.754;11.508;2022-08-21T05:31:38;18.00;;;16.75;;
21543;SDS011;10933;50.754;11.508;2022-08-21T05:34:04;13.40;;;12.70;;
21543;SDS011;10933;50.754;11.508;2022-08-21T05:36:30;15.30;;;14.27;;
21543;SDS011;10933;50.754;11.508;2022-08-21T05:38:57;13.32;;;12.63;;
21543;SDS011;10933;50.754;11.508;2022-08-21T05:41:23;13.48;;;12.77;;
21543;SDS011;10933;50.754;11.508;2022-08-21T05:43:49;12.40;;;11.80;;
21543;SDS011;10933;50.754;11.508;2022-08-21T05:46:15;12.07;;;11.18;;
21543;SDS011;10933;50.754;11.508;2022-08-21T05:48:41;11.48;;;10.77;;
21543;SDS011;10933;50.754;11.508;2022-08-21T05:51:09;12.35;;;11.48;;
21543;SDS011;10933;50.754;11.508;2022-08-21T05:53:37;11.38;;;10.75;;
21543;SDS011;10933;50.754;11.508;2022-08-21T05:56:04;10.93;;;10.43;;
21543;SDS011;10933;50.754;11.508;2022-08-21T05:58:32;10.88;;;10.20;;
21543;SDS011;10933;50.754;11.508;2022-08-21T06:00:59;10.55;;;9.85;;
21543;SDS011;10933;50.754;11.508;2022-08-21T06:03:28;11.63;;;11.05;;
21543;SDS011;10933;50.754;11.508;2022-08-21T06:05:58;18.13;;;16.85;;
21543;SDS011;10933;50.754;11.508;2022-08-21T06:08:25;10.68;;;10.07;;
21543;SDS011;10933;50.754;11.508;2022-08-21T06:10:52;12.18;;;11.57;;
21543;SDS011;10933;50.754;11.508;2022-08-21T06:13:21;10.68;;;10.18;;
21543;SDS011;10933;50.754;11.508;2022-08-21T06:15:47;10.00;;;9.43;;
21543;SDS011;10933;50.754;11.508;2022-08-21T06:18:14;9.50;;;9.10;;
21543;SDS011;10933;50.754;11.508;2022-08-21T06:20:41;9.73;;;9.23;;
21543;SDS011;10933;50.754;11.508;2022-08-21T06:23:08;9.68;;;9.18;;
21543;SDS011;10933;50.754;11.508;2022-08-21T06:25:34;8.68;;;8.27;;
21543;SDS011;10933;50.754;11.508;2022-08-21T06:28:04;9.65;;;9.15;;
21543;SDS011;10933;50.754;11.508;2022-08-21T06:30:32;12.00;;;10.85;;
21543;SDS011;10933;50.754;11.508;2022-08-21T06:32:58;8.98;;;8.57;;
21543;SDS011;10933;50.754;11.508;2022-08-21T06:35:25;10.32;;;9.73;;
21543;SDS011;10933;50.754;11.508;2022-08-21T06:37:51;9.05;;;8.57;;
21543;SDS011;10933;50.754;11.508;2022-08-21T06:40:17;9.88;;;9.38;;
21543;SDS011;10933;50.754;11.508;2022-08-21T06:42:43;9.45;;;8.85;;
21543;SDS011;10933;50.754;11.508;2022-08-21T06:45:10;7.78;;;7.38;;
21543;SDS011;10933;50.754;11.508;2022-08-21T06:47:36;8.00;;;7.63;;
21543;SDS011;10933;50.754;11.508;2022-08-21T06:50:02;8.20;;;7.80;;
21543;SDS011;10933;50.754;11.508;2022-08-21T06:52:29;8.70;;;8.30;;
21543;SDS011;10933;50.754;11.508;2022-08-21T06:54:55;9.32;;;8.93;;
21543;SDS011;10933;50.754;11.508;2022-08-21T06:57:22;9.05;;;8.65;;
21543;SDS011;10933;50.754;11.508;2022-08-21T06:59:48;8.45;;;7.95;;
21543;SDS011;10933;50.754;11.508;2022-08-21T07:02:14;8.00;;;7.60;;
21543;SDS011;10933;50.754;11.508;2022-08-21T07:04:40;8.25;;;7.85;;
21543;SDS011;10933;50.754;11.508;2022-08-21T07:07:06;8.30;;;7.72;;
21543;SDS011;10933;50.754;11.508;2022-08-21T07:09:32;7.75;;;7.45;;
21543;SDS011;10933;50.754;11.508;2022-08-21T07:11:59;8.50;;;7.97;;
21543;SDS011;10933;50.754;11.508;2022-08-21T07:14:25;8.07;;;7.40;;
21543;SDS011;10933;50.754;11.508;2022-08-21T07:16:51;7.97;;;7.57;;
21543;SDS011;10933;50.754;11.508;2022-08-21T07:19:18;7.85;;;7.55;;
21543;SDS011;10933;50.754;11.508;2022-08-21T07:21:44;7.50;;;7.15;;
21543;SDS011;10933;50.754;11.508;2022-08-21T07:24:11;8.13;;;7.72;;
21543;SDS011;10933;50.754;11.508;2022-08-21T07:26:37;8.00;;;7.50;;
21543;SDS011;10933;50.754;11.508;2022-08-21T07:29:04;8.27;;;7.60;;
21543;SDS011;10933;50.754;11.508;2022-08-21T07:31:30;7.40;;;7.05;;
21543;SDS011;10933;50.754;11.508;2022-08-21T07:33:56;7.93;;;7.53;;
21543;SDS011;10933;50.754;11.508;2022-08-21T07:36:23;7.68;;;7.28;;
21543;SDS011;10933;50.754;11.508;2022-08-21T07:38:50;7.57;;;7.28;;
21543;SDS011;10933;50.754;11.508;2022-08-21T07:41:17;7.72;;;7.22;;
21543;SDS011;10933;50.754;11.508;2022-08-21T07:43:48;7.28;;;6.97;;
21543;SDS011;10933;50.754;11.508;2022-08-21T07:46:15;7.53;;;6.97;;
21543;SDS011;10933;50.754;11.508;2022-08-21T07:48:42;7.57;;;7.25;;
21543;SDS011;10933;50.754;11.508;2022-08-21T07:51:09;7.85;;;7.35;;
21543;SDS011;10933;50.754;11.508;2022-08-21T07:53:37;7.25;;;6.95;;
21543;SDS011;10933;50.754;11.508;2022-08-21T07:56:04;7.22;;;6.82;;
21543;SDS011;10933;50.754;11.508;2022-08-21T07:58:33;8.32;;;7.93;;
21543;SDS011;10933;50.754;11.508;2022-08-21T08:00:59;8.30;;;7.68;;
21543;SDS011;10933;50.754;11.508;2022-08-21T08:03:26;7.35;;;7.05;;
21543;SDS011;10933;50.754;11.508;2022-08-21T08:05:52;8.50;;;8.10;;
21543;SDS011;10933;50.754;11.508;2022-08-21T08:08:18;9.15;;;8.65;;
21543;SDS011;10933;50.754;11.508;2022-08-21T08:10:44;9.68;;;8.00;;
21543;SDS011;10933;50.754;11.508;2022-08-21T08:13:11;8.63;;;8.10;;
21543;SDS011;10933;50.754;11.508;2022-08-21T08:15:38;8.55;;;8.15;;
21543;SDS011;10933;50.754;11.508;2022-08-21T08:18:04;9.27;;;8.77;;
21543;SDS011;10933;50.754;11.508;2022-08-21T08:20:30;9.27;;;8.77;;
21543;SDS011;10933;50.754;11.508;2022-08-21T08:22:57;9.55;;;9.15;;
21543;SDS011;10933;50.754;11.508;2022-08-21T08:25:24;9.30;;;8.80;;
21543;SDS011;10933;50.754;11.508;2022-08-21T08:27:51;9.55;;;8.95;;
21543;SDS011;10933;50.754;11.508;2022-08-21T08:30:18;9.77;;;9.27;;
21543;SDS011;10933;50.754;11.508;2022-08-21T08:32:47;11.48;;;8.75;;
21543;SDS011;10933;50.754;11.508;2022-08-21T08:35:14;8.98;;;8.48;;
21543;SDS011;10933;50.754;11.508;2022-08-21T08:37:41;9.25;;;8.85;;
21543;SDS011;10933;50.754;11.508;2022-08-21T08:40:11;9.50;;;9.05;;
21543;SDS011;10933;50.754;11.508;2022-08-21T08:42:58;9.05;;;8.55;;
21543;SDS011;10933;50.754;11.508;2022-08-21T08:45:24;10.02;;;9.43;;
21543;SDS011;10933;50.754;11.508;2022-08-21T08:47:52;7.93;;;7.53;;
21543;SDS011;10933;50.754;11.508;2022-08-21T08:50:33;8.00;;;7.60;;
21543;SDS011;10933;50.754;11.508;2022-08-21T08:53:15;8.27;;;7.72;;
21543;SDS011;10933;50.754;11.508;2022-08-21T08:55:47;6.80;;;6.50;;
21543;SDS011;10933;50.754;11.508;2022-08-21T08:58:18;7.30;;;6.88;;
21543;SDS011;10933;50.754;11.508;2022-08-21T09:00:58;6.03;;;5.70;;
21543;SDS011;10933;50.754;11.508;2022-08-21T09:03:25;6.20;;;5.88;;
21543;SDS011;10933;50.754;11.508;2022-08-21T09:11:30;6.88;;;3.58;;
21543;SDS011;10933;50.754;11.508;2022-08-21T09:25:24;3.78;;;3.53;;
21543;SDS011;10933;50.754;11.508;2022-08-21T09:27:53;3.25;;;2.88;;
21543;SDS011;10933;50.754;11.508;2022-08-21T09:30:29;3.40;;;3.13;;
21543;SDS011;10933;50.754;11.508;2022-08-21T09:32:57;2.88;;;2.53;;
21543;SDS011;10933;50.754;11.508;2022-08-21T09:35:24;4.43;;;3.08;;
21543;SDS011;10933;50.754;11.508;2022-08-21T09:37:54;4.25;;;3.05;;
21543;SDS011;10933;50.754;11.508;2022-08-21T09:42:54;3.38;;;1.98;;
21543;SDS011;10933;50.754;11.508;2022-08-21T09:45:29;2.85;;;2.65;;
21543;SDS011;10933;50.754;11.508;2022-08-21T09:48:07;2.95;;;2.75;;
21543;SDS011;10933;50.754;11.508;2022-08-21T09:50:38;2.80;;;2.60;;
21543;SDS011;10933;50.754;11.508;2022-08-21T09:53:13;2.90;;;2.75;;
21543;SDS011;10933;50.754;11.508;2022-08-21T09:58:44;2.38;;;2.17;;
21543;SDS011;10933;50.754;11.508;2022-08-21T10:01:18;2.95;;;1.73;;
21543;SDS011;10933;50.754;11.508;2022-08-21T10:03:47;1.70;;;1.50;;
21543;SDS011;10933;50.754;11.508;2022-08-21T10:06:27;1.40;;;1.30;;
21543;SDS011;10933;50.754;11.508;2022-08-21T10:32:27;2.15;;;2.00;;
21543;SDS011;10933;50.754;11.508;2022-08-21T10:37:40;2.10;;;1.85;;
21543;SDS011;10933;50.754;11.508;2022-08-21T10:56:40;2.35;;;1.60;;
21543;SDS011;10933;50.754;11.508;2022-08-21T11:02:19;2.35;;;1.55;;
21543;SDS011;10933;50.754;11.508;2022-08-21T11:04:59;1.60;;;1.50;;
21543;SDS011;10933;50.754;11.508;2022-08-21T11:07:37;1.65;;;1.55;;
21543;SDS011;10933;50.754;11.508;2022-08-21T11:13:27;2.30;;;1.77;;
21543;SDS011;10933;50.754;11.508;2022-08-21T11:16:02;3.85;;;1.90;;
21543;SDS011;10933;50.754;11.508;2022-08-21T11:19:06;2.35;;;1.70;;
21543;SDS011;10933;50.754;11.508;2022-08-21T11:24:51;2.30;;;2.15;;
21543;SDS011;10933;50.754;11.508;2022-08-21T11:27:36;2.35;;;2.25;;
21543;SDS011;10933;50.754;11.508;2022-08-21T11:30:27;2.30;;;2.20;;
21543;SDS011;10933;50.754;11.508;2022-08-21T11:36:15;3.17;;;2.78;;
21543;SDS011;10933;50.754;11.508;2022-08-21T11:44:56;3.03;;;2.83;;
21543;SDS011;10933;50.754;11.508;2022-08-21T11:50:38;3.13;;;2.97;;
21543;SDS011;10933;50.754;11.508;2022-08-21T11:53:13;2.60;;;2.40;;
21543;SDS011;10933;50.754;11.508;2022-08-21T11:58:43;2.55;;;2.17;;
21543;SDS011;10933;50.754;11.508;2022-08-21T12:01:28;2.33;;;2.17;;
21543;SDS011;10933;50.754;11.508;2022-08-21T12:04:03;2.25;;;2.10;;
21543;SDS011;10933;50.754;11.508;2022-08-21T12:06:47;4.35;;;1.95;;
21543;SDS011;10933;50.754;11.508;2022-08-21T12:12:03;1.75;;;1.55;;
21543;SDS011;10933;50.754;11.508;2022-08-21T12:15:15;18.55;;;2.50;;
21543;SDS011;10933;50.754;11.508;2022-08-21T12:18:03;2.33;;;2.13;;
21543;SDS011;10933;50.754;11.508;2022-08-21T12:21:03;1.63;;;1.52;;
21543;SDS011;10933;50.754;11.508;2022-08-21T12:23:33;1.70;;;1.60;;
21543;SDS011;10933;50.754;11.508;2022-08-21T12:28:45;1.73;;;1.63;;
21543;SDS011;10933;50.754;11.508;2022-08-21T12:31:20;3.88;;;1.85;;
21543;SDS011;10933;50.754;11.508;2022-08-21T12:33:52;1.95;;;1.67;;
21543;SDS011;10933;50.754;11.508;2022-08-21T12:36:48;1.90;;;1.80;;
21543;SDS011;10933;50.754;11.508;2022-08-21T12:39:25;2.42;;;2.25;;
21543;SDS011;10933;50.754;11.508;2022-08-21T12:42:04;2.78;;;1.98;;
21543;SDS011;10933;50.754;11.508;2022-08-21T12:44:57;2.17;;;2.05;;
21543;SDS011;10933;50.754;11.508;2022-08-21T12:47:45;2.00;;;1.90;;
21543;SDS011;10933;50.754;11.508;2022-08-21T12:50:26;4.20;;;2.00;;
21543;SDS011;10933;50.754;11.508;2022-08-21T12:56:07;2.67;;;2.30;;
21543;SDS011;10933;50.754;11.508;2022-08-21T12:58:44;2.50;;;2.30;;
21543;SDS011;10933;50.754;11.508;2022-08-21T13:01:29;2.25;;;2.13;;
21543;SDS011;10933;50.754;11.508;2022-08-21T13:04:04;2.33;;;2.13;;
21543;SDS011;10933;50.754;11.508;2022-08-21T13:06:49;2.30;;;2.10;;
21543;SDS011;10933;50.754;11.508;2022-08-21T13:09:21;2.47;;;2.00;;
21543;SDS011;10933;50.754;11.508;2022-08-21T13:11:53;1.85;;;1.75;;
21543;SDS011;10933;50.754;11.508;2022-08-21T13:14:45;1.90;;;1.80;;
21543;SDS011;10933;50.754;11.508;2022-08-21T13:17:20;1.70;;;1.60;;
21543;SDS011;10933;50.754;11.508;2022-08-21T13:19:53;1.58;;;1.48;;
21543;SDS011;10933;50.754;11.508;2022-08-21T13:23:00;1.98;;;1.88;;
21543;SDS011;10933;50.754;11.508;2022-08-21T13:25:51;6.25;;;2.00;;
21543;SDS011;10933;50.754;11.508;2022-08-21T13:28:19;3.17;;;2.03;;
21543;SDS011;10933;50.754;11.508;2022-08-21T13:30:58;2.30;;;2.15;;
21543;SDS011;10933;50.754;11.508;2022-08-21T13:33:32;1.98;;;1.88;;
21543;SDS011;10933;50.754;11.508;2022-08-21T13:36:06;2.28;;;2.10;;
21543;SDS011;10933;50.754;11.508;2022-08-21T13:38:55;4.53;;;2.20;;
21543;SDS011;10933;50.754;11.508;2022-08-21T13:41:29;1.80;;;1.70;;
21543;SDS011;10933;50.754;11.508;2022-08-21T13:44:22;2.08;;;1.95;;
21543;SDS011;10933;50.754;11.508;2022-08-21T13:47:00;2.30;;;2.10;;
21543;SDS011;10933;50.754;11.508;2022-08-21T13:50:00;2.33;;;2.00;;
21543;SDS011;10933;50.754;11.508;2022-08-21T13:52:33;2.10;;;1.88;;
21543;SDS011;10933;50.754;11.508;2022-08-21T13:55:23;2.97;;;1.95;;
21543;SDS011;10933;50.754;11.508;2022-08-21T13:58:01;2.25;;;2.00;;
21543;SDS011;10933;50.754;11.508;2022-08-21T14:00:58;2.50;;;2.08;;
21543;SDS011;10933;50.754;11.508;2022-08-21T14:03:33;2.10;;;1.52;;
21543;SDS011;10933;50.754;11.508;2022-08-21T14:06:39;1.98;;;1.88;;
21543;SDS011;10933;50.754;11.508;2022-08-21T14:09:07;4.05;;;2.05;;
21543;SDS011;10933;50.754;11.508;2022-08-21T14:11:40;1.80;;;1.70;;
21543;SDS011;10933;50.754;11.508;2022-08-21T14:17:00;1.65;;;1.55;;
21543;SDS011;10933;50.754;11.508;2022-08-21T14:19:41;1.85;;;1.75;;
21543;SDS011;10933;50.754;11.508;2022-08-21T14:30:37;2.15;;;1.95;;
21543;SDS011;10933;50.754;11.508;2022-08-21T14:33:16;2.42;;;2.22;;
21543;SDS011;10933;50.754;11.508;2022-08-21T14:35:52;2.20;;;2.10;;
21543;SDS011;10933;50.754;11.508;2022-08-21T14:38:19;2.67;;;2.47;;
21543;SDS011;10933;50.754;11.508;2022-08-21T14:40:51;2.30;;;2.20;;
21543;SDS011;10933;50.754;11.508;2022-08-21T14:43:22;1.95;;;1.85;;
21543;SDS011;10933;50.754;11.508;2022-08-21T14:45:51;2.97;;;2.72;;
21543;SDS011;10933;50.754;11.508;2022-08-21T14:48:16;2.33;;;2.22;;
21543;SDS011;10933;50.754;11.508;2022-08-21T14:50:42;2.08;;;1.98;;
21543;SDS011;10933;50.754;11.508;2022-08-21T14:53:08;2.00;;;1.85;;
21543;SDS011;10933;50.754;11.508;2022-08-21T14:55:34;2.15;;;2.05;;
21543;SDS011;10933;50.754;11.508;2022-08-21T14:58:21;2.95;;;2.13;;
21543;SDS011;10933;50.754;11.508;2022-08-21T15:00:48;2.22;;;2.03;;
21543;SDS011;10933;50.754;11.508;2022-08-21T15:03:17;2.40;;;1.70;;
21543;SDS011;10933;50.754;11.508;2022-08-21T15:05:46;2.00;;;1.90;;
21543;SDS011;10933;50.754;11.508;2022-08-21T15:08:13;2.28;;;1.95;;
21543;SDS011;10933;50.754;11.508;2022-08-21T15:10:39;2.60;;;1.83;;
21543;SDS011;10933;50.754;11.508;2022-08-21T15:13:05;1.95;;;1.85;;
21543;SDS011;10933;50.754;11.508;2022-08-21T15:15:34;2.25;;;2.10;;
21543;SDS011;10933;50.754;11.508;2022-08-21T15:18:09;2.15;;;2.05;;
21543;SDS011;10933;50.754;11.508;2022-08-21T15:20:35;2.53;;;2.30;;
21543;SDS011;10933;50.754;11.508;2022-08-21T15:23:03;2.45;;;2.28;;
21543;SDS011;10933;50.754;11.508;2022-08-21T15:25:31;2.17;;;2.08;;
21543;SDS011;10933;50.754;11.508;2022-08-21T15:27:58;11.30;;;2.15;;
21543;SDS011;10933;50.754;11.508;2022-08-21T15:30:25;3.30;;;2.17;;
21543;SDS011;10933;50.754;11.508;2022-08-21T15:32:54;2.20;;;2.10;;
21543;SDS011;10933;50.754;11.508;2022-08-21T15:35:19;2.10;;;1.92;;
21543;SDS011;10933;50.754;11.508;2022-08-21T15:37:45;3.97;;;2.45;;
21543;SDS011;10933;50.754;11.508;2022-08-21T15:40:11;3.05;;;2.20;;
21543;SDS011;10933;50.754;11.508;2022-08-21T15:42:39;2.00;;;1.90;;
21543;SDS011;10933;50.754;11.508;2022-08-21T15:45:06;2.60;;;2.00;;
21543;SDS011;10933;50.754;11.508;2022-08-21T15:47:36;2.10;;;2.00;;
21543;SDS011;10933;50.754;11.508;2022-08-21T15:50:05;2.33;;;2.13;;
21543;SDS011;10933;50.754;11.508;2022-08-21T15:52:33;2.47;;;2.20;;
21543;SDS011;10933;50.754;11.508;2022-08-21T15:54:59;2.22;;;2.05;;
21543;SDS011;10933;50.754;11.508;2022-08-21T15:57:25;1.75;;;1.63;;
21543;SDS011;10933;50.754;11.508;2022-08-21T15:59:53;2.00;;;1.90;;
21543;SDS011;10933;50.754;11.508;2022-08-21T16:02:32;1.90;;;1.80;;
21543;SDS011;10933;50.754;11.508;2022-08-21T16:04:59;2.08;;;1.98;;
21543;SDS011;10933;50.754;11.508;2022-08-21T16:07:25;2.10;;;2.00;;
21543;SDS011;10933;50.754;11.508;2022-08-21T16:09:51;2.17;;;2.03;;
21543;SDS011;10933;50.754;11.508;2022-08-21T16:15:23;2.75;;;1.83;;
21543;SDS011;10933;50.754;11.508;2022-08-21T16:18:01;2.15;;;1.75;;
21543;SDS011;10933;50.754;11.508;2022-08-21T16:20:28;1.85;;;1.70;;
21543;SDS011;10933;50.754;11.508;2022-08-21T16:22:55;2.10;;;1.90;;
21543;SDS011;10933;50.754;11.508;2022-08-21T16:25:23;1.90;;;1.80;;
21543;SDS011;10933;50.754;11.508;2022-08-21T16:27:52;2.05;;;1.95;;
21543;SDS011;10933;50.754;11.508;2022-08-21T16:30:23;1.88;;;1.77;;
21543;SDS011;10933;50.754;11.508;2022-08-21T16:32:49;2.10;;;2.00;;
21543;SDS011;10933;50.754;11.508;2022-08-21T16:35:18;3.80;;;2.10;;
21543;SDS011;10933;50.754;11.508;2022-08-21T16:37:46;2.08;;;1.98;;
21543;SDS011;10933;50.754;11.508;2022-08-21T16:40:13;2.00;;;1.90;;